Dutton, Michigan
Current Conditions -  °F | °C
As of 9:53 AM on Monday 24 Nov 2014 (Local Time) from KGRR Reporting Station
Haze Haze  
Wind Chill: 50°   Ceiling: 400
Heat Index: 50°   Visibility: 1.2mi
Dew Point: 49°   Wind: 9mph
Humidity: 96%   Direction: 230°SW
Pressure: 29.06"   Gusts: NA
Location:  42.7912°N, 85.5517°W
Report Text: KGRR 241453Z 23008KT 1 1/4SM BR OVC004 10/09 A2906 RMK AO2 SLP841 60003 T01000094 58002
Loading
Personal Weather Stations






























Interactive Weather Map New forecast layout! Learn more

10-Day Weather Forecast

Advertisements
Track Severe Weather on mobile